createdAt,value
2024-04-16T00:01:39.836Z,149896.69
2024-04-16T00:04:25.978Z,150476.78
2024-04-16T00:07:12.007Z,145611.13
2024-04-16T00:09:58.109Z,144715.13
2024-04-16T00:12:44.120Z,147170.13
2024-04-16T00:15:30.618Z,152212.75
2024-04-16T00:18:16.506Z,152003.38
2024-04-16T00:21:02.529Z,152615.13
2024-04-16T00:23:48.540Z,152352.50
2024-04-16T00:26:34.778Z,152276.09
2024-04-16T00:29:21.720Z,152197.00
2024-04-16T00:32:07.702Z,152352.69
2024-04-16T00:34:54.317Z,152213.31
2024-04-16T00:37:40.152Z,152370.31
2024-04-16T00:40:26.286Z,152261.00
2024-04-16T00:43:20.011Z,152420.38
2024-04-16T00:46:06.529Z,152420.56
2024-04-16T00:48:52.657Z,152258.50
2024-04-16T00:51:38.923Z,152276.09
2024-04-16T00:54:26.374Z,62747.53
2024-04-16T00:57:12.673Z,62747.53
2024-04-16T01:00:00.425Z,62747.53
2024-04-16T01:02:46.490Z,62747.53
2024-04-16T01:05:33.882Z,62747.53
2024-04-16T01:08:19.935Z,62747.53
2024-04-16T01:11:08.431Z,62747.53
2024-04-16T01:13:58.399Z,62747.53
2024-04-16T01:16:45.018Z,62747.53
2024-04-16T01:19:31.205Z,62747.53
2024-04-16T01:22:17.099Z,62747.53
2024-04-16T01:25:03.192Z,62747.53
2024-04-16T01:27:49.456Z,62747.53
2024-04-16T01:30:35.682Z,62747.53
2024-04-16T01:33:21.967Z,62747.53
2024-04-16T01:36:08.112Z,62747.53
2024-04-16T01:38:54.015Z,62747.53
2024-04-16T01:41:39.829Z,62747.53
2024-04-16T01:44:25.558Z,62747.53
2024-04-16T01:47:11.788Z,62747.53
2024-04-16T01:49:57.936Z,62747.53
2024-04-16T01:52:44.065Z,62747.53
2024-04-16T01:55:30.031Z,62747.53
2024-04-16T01:58:16.072Z,62747.53
2024-04-16T02:01:02.425Z,62747.53
2024-04-16T02:03:48.697Z,62747.53
2024-04-16T02:06:35.662Z,62747.53
2024-04-16T02:09:21.421Z,62747.53
2024-04-16T02:12:07.504Z,62747.53
2024-04-16T02:14:53.239Z,62747.53
2024-04-16T02:17:39.262Z,62747.53
2024-04-16T02:20:25.639Z,62747.53
2024-04-16T02:23:12.043Z,62747.53
2024-04-16T02:25:58.505Z,62747.53
2024-04-16T02:28:44.458Z,62747.53
2024-04-16T02:31:31.774Z,62747.53
2024-04-16T02:34:18.415Z,62747.53
2024-04-16T02:37:05.077Z,62747.53
2024-04-16T02:39:50.770Z,62747.53
2024-04-16T02:42:37.087Z,62747.53
2024-04-16T02:45:23.419Z,62747.53
2024-04-16T02:48:09.267Z,62747.53
2024-04-16T02:50:55.995Z,62747.53
2024-04-16T02:53:42.342Z,62747.53
2024-04-16T02:56:28.284Z,62747.53
2024-04-16T02:59:14.536Z,62747.53
2024-04-16T03:02:02.374Z,62747.53
2024-04-16T03:04:48.846Z,62747.53
2024-04-16T03:07:35.123Z,62747.53
2024-04-16T03:10:21.146Z,62747.53
2024-04-16T03:13:07.448Z,62747.53
2024-04-16T03:15:53.418Z,62747.53
2024-04-16T03:18:39.751Z,62747.53
2024-04-16T03:21:26.320Z,62747.53
2024-04-16T03:24:18.005Z,62747.53
2024-04-16T03:27:04.304Z,62747.53
2024-04-16T03:29:50.270Z,62747.53
2024-04-16T03:32:36.470Z,62747.53
2024-04-16T03:35:22.588Z,62747.53
2024-04-16T03:38:08.394Z,62747.53
2024-04-16T03:41:03.967Z,62747.53
2024-04-16T03:43:55.818Z,62747.53
2024-04-16T03:46:42.870Z,62747.53
2024-04-16T03:49:29.921Z,62747.53
2024-04-16T03:52:16.663Z,62747.53
2024-04-16T03:55:03.236Z,62747.53
2024-04-16T03:57:49.058Z,62747.53
2024-04-16T04:00:53.975Z,62747.53
2024-04-16T04:03:41.060Z,62747.53
2024-04-16T04:06:27.392Z,62747.53
2024-04-16T04:09:13.182Z,62747.53
2024-04-16T04:11:58.918Z,62747.53
2024-04-16T04:14:45.202Z,62747.53
2024-04-16T04:17:31.321Z,62747.53
2024-04-16T04:20:17.487Z,62747.53
2024-04-16T04:23:03.784Z,62747.53
2024-04-16T04:25:49.801Z,62747.53
2024-04-16T04:28:35.993Z,62747.53
2024-04-16T04:31:22.006Z,62747.53
2024-04-16T04:34:07.991Z,62747.53
2024-04-16T04:36:54.230Z,62747.53
2024-04-16T04:39:40.251Z,62747.53
2024-04-16T04:42:27.552Z,62747.53
2024-04-16T04:45:13.970Z,62747.53
2024-04-16T04:48:00.157Z,62747.53
2024-04-16T04:50:46.008Z,62747.53
2024-04-16T04:53:31.857Z,62747.53
2024-04-16T04:56:18.107Z,62747.53
2024-04-16T04:59:04.257Z,62747.53
2024-04-16T05:01:50.745Z,62747.53
2024-04-16T05:04:37.260Z,62747.53
2024-04-16T05:07:22.941Z,62747.53
2024-04-16T05:10:10.373Z,62747.53
2024-04-16T05:12:56.739Z,62747.53
2024-04-16T05:15:42.852Z,62747.53
2024-04-16T05:18:29.189Z,62747.53
2024-04-16T05:21:15.177Z,62747.53
2024-04-16T05:24:03.475Z,62747.53
2024-04-16T05:26:49.761Z,62747.53
2024-04-16T05:29:35.910Z,62747.53
2024-04-16T05:32:22.130Z,62747.53
2024-04-16T05:35:08.240Z,62747.53
2024-04-16T05:37:53.867Z,62747.53
2024-04-16T05:40:39.846Z,62747.53
2024-04-16T05:43:25.721Z,62747.53
2024-04-16T05:46:12.554Z,62747.53
2024-04-16T05:49:00.305Z,62747.53
2024-04-16T05:51:46.405Z,62747.53
2024-04-16T05:54:33.946Z,62747.53
2024-04-16T05:57:20.226Z,62747.53
2024-04-16T06:00:07.114Z,62747.53
2024-04-16T06:02:53.228Z,62747.53
2024-04-16T06:05:39.216Z,62747.53
2024-04-16T06:08:25.023Z,62747.53
2024-04-16T06:11:11.275Z,62747.53
2024-04-16T06:13:57.232Z,62747.53
2024-04-16T06:16:43.037Z,62747.53
2024-04-16T06:19:29.345Z,62747.53
2024-04-16T06:22:15.157Z,62747.53
2024-04-16T06:25:01.223Z,62747.53
2024-04-16T06:27:49.948Z,62747.53
2024-04-16T06:30:35.822Z,62747.53
2024-04-16T06:33:22.178Z,62747.53
2024-04-16T06:36:08.936Z,62747.53
2024-04-16T06:38:55.215Z,62747.53
2024-04-16T06:41:41.235Z,62747.53
2024-04-16T06:44:27.274Z,62747.53
2024-04-16T06:47:13.451Z,62747.53
2024-04-16T06:49:59.410Z,62747.53
2024-04-16T06:52:45.447Z,62747.53
2024-04-16T06:55:34.403Z,62747.53
2024-04-16T06:58:20.545Z,62747.53
2024-04-16T07:01:06.599Z,62747.53
2024-04-16T07:03:52.633Z,62747.53
2024-04-16T07:06:38.730Z,62747.53
2024-04-16T07:09:24.865Z,62747.53
2024-04-16T07:12:10.974Z,62747.53
2024-04-16T07:14:57.160Z,62747.53
2024-04-16T07:17:43.236Z,62747.53
2024-04-16T07:20:29.225Z,62747.53
2024-04-16T07:23:15.431Z,62747.53
2024-04-16T07:26:04.873Z,62747.53
2024-04-16T07:28:52.528Z,62747.53
2024-04-16T07:31:44.775Z,62747.53
2024-04-16T07:34:33.801Z,62747.53
2024-04-16T07:37:20.720Z,62747.53
2024-04-16T07:40:07.339Z,62747.53
2024-04-16T07:42:55.694Z,62747.53
2024-04-16T07:45:41.923Z,62747.53
2024-04-16T07:48:27.519Z,62747.53
2024-04-16T07:51:13.460Z,62747.53
2024-04-16T07:53:59.715Z,62747.53
2024-04-16T07:56:45.686Z,62747.53
2024-04-16T07:59:32.009Z,62747.53
2024-04-16T08:02:18.257Z,62747.53
2024-04-16T08:05:05.423Z,62747.53
2024-04-16T08:07:52.553Z,62747.53
2024-04-16T08:10:38.732Z,62747.53
2024-04-16T08:13:26.673Z,62747.53
2024-04-16T08:16:13.286Z,62747.53
2024-04-16T08:18:59.636Z,62747.53
2024-04-16T08:21:45.976Z,62747.53
2024-04-16T08:24:33.368Z,62747.53
2024-04-16T08:27:23.948Z,62747.53
2024-04-16T08:30:11.089Z,62747.53
2024-04-16T08:32:57.123Z,62747.53
2024-04-16T08:35:43.549Z,62747.53
2024-04-16T08:38:29.825Z,62747.53
2024-04-16T08:41:15.536Z,62747.53
2024-04-16T08:44:04.202Z,62747.53
2024-04-16T08:46:52.036Z,62747.53
2024-04-16T08:49:42.914Z,62747.53
2024-04-16T08:52:30.619Z,62747.53
2024-04-16T08:55:20.351Z,62747.53
2024-04-16T08:58:08.934Z,62747.53
2024-04-16T09:00:57.490Z,62747.53
2024-04-16T09:03:51.118Z,62747.53
2024-04-16T09:06:38.080Z,62747.53
2024-04-16T09:09:24.193Z,62747.53
2024-04-16T09:12:11.431Z,62747.53
2024-04-16T09:14:57.626Z,62747.53
2024-04-16T09:18:01.825Z,62747.53
2024-04-16T09:20:48.793Z,62747.53
2024-04-16T09:23:35.114Z,62747.53
2024-04-16T09:26:21.145Z,62747.53
2024-04-16T09:29:07.440Z,62747.53
2024-04-16T09:32:04.469Z,62747.53
2024-04-16T09:34:50.556Z,62747.53
2024-04-16T09:37:39.687Z,62747.53
2024-04-16T09:40:31.192Z,62747.53
2024-04-16T09:43:19.057Z,62747.53
2024-04-16T09:46:05.333Z,62747.53
2024-04-16T09:48:53.469Z,62747.53
2024-04-16T09:51:40.499Z,62747.53
2024-04-16T09:54:26.822Z,62747.53
2024-04-16T09:57:13.163Z,62747.53
2024-04-16T10:00:01.946Z,62747.53
2024-04-16T10:02:49.417Z,62747.53
2024-04-16T10:05:35.140Z,62747.53
2024-04-16T10:08:22.264Z,62747.53
2024-04-16T10:11:14.227Z,62747.53
2024-04-16T10:14:03.672Z,62747.53
2024-04-16T10:16:50.129Z,62747.53
2024-04-16T10:19:35.914Z,62747.53
2024-04-16T10:22:21.865Z,62747.53
2024-04-16T10:25:07.991Z,62747.53
2024-04-16T10:27:54.024Z,62747.53
2024-04-16T10:30:40.671Z,62747.53
2024-04-16T10:33:37.245Z,62747.53
2024-04-16T10:36:23.311Z,62747.53
2024-04-16T10:39:14.400Z,62747.53
2024-04-16T10:42:05.530Z,62747.53
2024-04-16T10:44:52.424Z,62747.53
2024-04-16T10:47:38.809Z,62747.53
2024-04-16T10:50:24.604Z,62747.53
2024-04-16T10:53:14.983Z,62747.53
2024-04-16T10:56:01.125Z,62747.53
2024-04-16T10:58:47.582Z,62747.53
2024-04-16T11:01:43.430Z,62747.53
2024-04-16T11:04:32.151Z,62747.53
2024-04-16T11:07:18.741Z,62747.53
2024-04-16T11:10:06.699Z,62747.53
2024-04-16T11:12:54.003Z,62747.53
2024-04-16T11:15:41.744Z,62747.53
2024-04-16T11:18:31.700Z,62747.53
2024-04-16T11:21:18.209Z,62747.53
2024-04-16T11:24:05.696Z,62747.53
2024-04-16T11:26:51.801Z,62747.53
2024-04-16T11:29:37.747Z,62747.53
2024-04-16T11:32:26.319Z,62747.53
2024-04-16T11:35:13.237Z,62747.53
2024-04-16T11:38:00.661Z,62747.53
2024-04-16T11:40:50.168Z,62747.53
2024-04-16T11:43:40.134Z,62747.53
2024-04-16T11:46:26.044Z,62747.53
2024-04-16T11:49:13.151Z,62747.53
2024-04-16T11:52:03.971Z,62747.53
2024-04-16T11:54:49.707Z,62747.53
2024-04-16T11:57:35.997Z,62747.53
2024-04-16T12:00:21.951Z,62747.53
2024-04-16T12:03:10.365Z,62747.53
2024-04-16T12:05:56.115Z,62747.53
2024-04-16T12:08:42.234Z,62747.53
2024-04-16T12:11:28.313Z,62747.53
2024-04-16T12:14:14.399Z,62747.53
2024-04-16T12:17:00.858Z,62747.53
2024-04-16T12:19:47.703Z,62747.53
2024-04-16T12:22:33.548Z,62747.53
2024-04-16T12:25:19.729Z,62747.53
2024-04-16T12:28:05.930Z,62747.53
2024-04-16T12:30:51.876Z,62747.53
2024-04-16T12:33:39.022Z,62747.53
2024-04-16T12:36:25.304Z,62747.53
2024-04-16T12:39:12.714Z,62747.53
2024-04-16T12:42:00.609Z,62747.53
2024-04-16T12:44:46.658Z,62747.53
2024-04-16T12:47:32.548Z,62747.53
2024-04-16T12:50:19.752Z,62747.53
2024-04-16T12:53:05.854Z,62747.53
2024-04-16T12:55:53.184Z,62747.53
2024-04-16T12:58:39.390Z,62747.53
2024-04-16T13:01:25.118Z,62747.53
2024-04-16T13:04:11.068Z,62747.53
2024-04-16T13:06:57.081Z,62747.53
2024-04-16T13:09:43.361Z,62747.53
2024-04-16T13:12:29.314Z,62747.53
2024-04-16T13:15:15.137Z,62747.53
2024-04-16T13:18:01.673Z,62747.53
2024-04-16T13:20:57.181Z,62747.53
2024-04-16T13:23:42.981Z,62747.53
2024-04-16T13:26:29.537Z,62747.53
2024-04-16T13:29:15.685Z,62747.53
2024-04-16T13:32:01.620Z,62747.53
2024-04-16T13:34:50.892Z,62747.53
2024-04-16T13:37:37.962Z,62747.53
2024-04-16T13:40:26.200Z,62747.53
2024-04-16T13:43:15.794Z,62747.53
2024-04-16T13:46:01.873Z,62747.53
2024-04-16T13:48:47.834Z,62747.53
2024-04-16T13:51:33.776Z,62747.53
2024-04-16T13:54:20.993Z,62747.53
2024-04-16T13:57:06.941Z,62747.53
2024-04-16T13:59:53.600Z,62747.53
2024-04-16T14:02:39.167Z,62747.53
2024-04-16T14:05:25.931Z,62747.53
2024-04-16T14:08:14.171Z,62747.53
2024-04-16T14:11:00.290Z,62747.53
2024-04-16T14:13:45.920Z,62747.53
2024-04-16T14:16:32.469Z,62747.53
2024-04-16T14:19:20.826Z,62747.53
2024-04-16T14:22:07.249Z,62747.53
2024-04-16T14:24:53.174Z,62747.53
2024-04-16T14:27:39.120Z,62747.53
2024-04-16T14:30:28.386Z,62747.53
2024-04-16T14:33:14.607Z,62747.53
2024-04-16T14:36:01.289Z,62747.53
2024-04-16T14:38:47.007Z,62747.53
2024-04-16T14:41:32.815Z,62747.53
2024-04-16T14:44:19.087Z,62747.53
2024-04-16T14:47:05.569Z,62747.53
2024-04-16T14:49:51.656Z,62747.53
2024-04-16T14:52:37.584Z,62747.53
2024-04-16T14:55:23.383Z,62747.53
2024-04-16T14:58:09.386Z,62747.53
2024-04-16T15:00:57.018Z,62747.53
2024-04-16T15:03:43.049Z,62747.53
2024-04-16T15:06:29.311Z,62747.53
2024-04-16T15:09:16.719Z,62747.53
2024-04-16T15:12:04.031Z,62747.53
2024-04-16T15:14:49.917Z,62747.53
2024-04-16T15:17:35.595Z,62747.53
2024-04-16T15:20:21.430Z,62747.53
2024-04-16T15:23:09.453Z,62747.53
2024-04-16T15:25:55.760Z,62747.53
2024-04-16T15:28:41.689Z,62747.53
2024-04-16T15:31:27.394Z,62747.53
2024-04-16T15:34:13.172Z,62747.53
2024-04-16T15:36:59.166Z,62747.53
2024-04-16T15:39:45.213Z,62747.53
2024-04-16T15:42:31.367Z,62747.53
2024-04-16T15:45:17.300Z,62747.53
2024-04-16T15:48:03.193Z,62747.53
2024-04-16T15:50:50.780Z,62747.53
2024-04-16T15:53:40.299Z,62747.53
2024-04-16T15:56:27.035Z,62747.53
2024-04-16T15:59:12.918Z,62747.53
2024-04-16T16:01:58.692Z,62747.53
2024-04-16T16:04:44.515Z,62747.53
2024-04-16T16:07:30.627Z,62747.53
2024-04-16T16:10:16.969Z,62747.53
2024-04-16T16:13:05.475Z,62747.53
2024-04-16T16:15:51.355Z,62747.53
2024-04-16T16:18:38.717Z,62747.53
2024-04-16T16:21:24.761Z,62747.53
2024-04-16T16:24:10.932Z,62747.53
2024-04-16T16:26:56.778Z,62747.53
2024-04-16T16:29:43.750Z,62747.53
2024-04-16T16:32:29.735Z,62747.53
2024-04-16T16:35:16.119Z,62747.53
2024-04-16T16:38:01.780Z,62747.53
2024-04-16T16:40:50.126Z,62747.53
2024-04-16T16:43:36.323Z,62747.53
2024-04-16T16:46:22.265Z,62747.53
2024-04-16T16:49:11.153Z,62747.53
2024-04-16T16:51:59.566Z,62747.53
2024-04-16T16:54:45.866Z,62747.53
2024-04-16T16:57:31.647Z,62747.53
2024-04-16T17:00:17.753Z,62747.53
2024-04-16T17:03:04.080Z,62747.53
2024-04-16T17:05:51.137Z,62747.53
2024-04-16T17:08:37.383Z,62747.53
2024-04-16T17:11:23.011Z,62747.53
2024-04-16T17:14:08.904Z,62747.53
2024-04-16T17:16:54.981Z,62747.53
2024-04-16T17:19:44.620Z,62747.53
2024-04-16T17:22:33.611Z,62747.53
2024-04-16T17:25:19.661Z,62747.53
2024-04-16T17:28:05.691Z,62747.53
2024-04-16T17:30:53.919Z,62747.53
2024-04-16T17:33:40.290Z,62747.53
2024-04-16T17:36:26.314Z,62747.53
2024-04-16T17:39:12.574Z,62747.53
2024-04-16T17:41:58.561Z,62747.53
2024-04-16T17:44:44.460Z,62747.53
2024-04-16T17:47:30.575Z,62747.53
2024-04-16T17:50:21.036Z,62747.53
2024-04-16T17:53:07.070Z,62747.53
2024-04-16T17:55:54.421Z,62747.53
2024-04-16T17:58:43.397Z,62747.53
2024-04-16T18:01:29.780Z,62747.53
2024-04-16T18:04:16.060Z,62747.53
2024-04-16T18:07:04.136Z,62747.53
2024-04-16T18:09:50.234Z,62747.53
2024-04-16T18:12:36.290Z,62747.53
2024-04-16T18:15:24.597Z,62747.53
2024-04-16T18:18:10.803Z,62747.53
2024-04-16T18:20:57.625Z,62747.53
2024-04-16T18:23:43.752Z,62747.53
2024-04-16T18:26:29.785Z,62747.53
2024-04-16T18:29:15.695Z,62747.53
2024-04-16T18:32:01.469Z,62747.53
2024-04-16T18:34:47.751Z,62747.53
2024-04-16T18:37:33.989Z,62747.53
2024-04-16T18:40:21.225Z,62747.53
2024-04-16T18:43:07.184Z,62747.53
2024-04-16T18:45:52.989Z,62747.53
2024-04-16T18:48:39.259Z,62747.53
2024-04-16T18:51:25.781Z,62747.53
2024-04-16T18:54:11.925Z,62747.53
2024-04-16T18:57:04.749Z,62747.53
2024-04-16T18:59:53.207Z,62747.53
2024-04-16T19:02:40.299Z,62747.53
2024-04-16T19:05:26.310Z,62747.53
2024-04-16T19:08:13.298Z,62747.53
2024-04-16T19:11:00.204Z,62747.53
2024-04-16T19:13:46.342Z,62747.53
2024-04-16T19:16:32.749Z,62747.53
2024-04-16T19:19:18.997Z,62747.53
2024-04-16T19:22:04.999Z,62747.53
2024-04-16T19:24:51.349Z,62747.53
2024-04-16T19:27:37.771Z,62747.53
2024-04-16T19:30:23.655Z,62747.53
2024-04-16T19:33:09.795Z,62747.53
2024-04-16T19:35:55.780Z,62747.53
2024-04-16T19:38:41.721Z,62747.53
2024-04-16T19:41:27.997Z,62747.53
2024-04-16T19:44:14.053Z,62747.53
2024-04-16T19:47:00.144Z,62747.53
2024-04-16T19:49:46.192Z,62747.53
2024-04-16T19:52:32.468Z,62747.53
2024-04-16T19:55:19.683Z,62747.53
2024-04-16T19:58:07.077Z,62747.53
2024-04-16T20:00:52.882Z,62747.53
2024-04-16T20:03:38.898Z,62747.53
2024-04-16T20:06:24.937Z,62747.53
2024-04-16T20:09:10.759Z,62747.53
2024-04-16T20:11:57.896Z,62747.53
2024-04-16T20:14:46.192Z,62747.53
2024-04-16T20:20:20.034Z,62747.53
2024-04-16T20:23:05.849Z,62747.53
2024-04-16T20:26:10.506Z,62747.53
2024-04-16T20:28:56.842Z,62747.53
2024-04-16T20:31:42.618Z,62747.53
2024-04-16T20:34:30.989Z,62747.53
2024-04-16T20:37:22.147Z,62747.53
2024-04-16T20:40:09.185Z,62747.53
2024-04-16T20:42:55.221Z,62747.53
2024-04-16T20:45:43.613Z,62747.53
2024-04-16T20:48:30.019Z,62747.53
2024-04-16T20:51:18.222Z,62747.53
2024-04-16T20:54:04.258Z,62747.53
2024-04-16T20:56:50.996Z,62747.53
2024-04-16T20:59:39.506Z,62747.53
2024-04-16T21:02:26.114Z,62747.53
2024-04-16T21:05:11.976Z,62747.53
2024-04-16T21:08:00.759Z,62747.53
2024-04-16T21:10:47.381Z,62747.53
2024-04-16T21:13:34.144Z,62747.53
2024-04-16T21:16:20.122Z,62747.53
2024-04-16T21:19:05.807Z,62747.53
2024-04-16T21:21:52.676Z,62747.53
2024-04-16T21:24:38.627Z,62747.53
2024-04-16T21:27:24.716Z,62747.53
2024-04-16T21:30:11.452Z,62747.53
2024-04-16T21:32:57.546Z,62747.53
2024-04-16T21:35:44.731Z,62747.53
2024-04-16T21:38:31.824Z,62747.53
2024-04-16T21:41:17.894Z,62747.53
2024-04-16T21:44:04.414Z,62747.53
2024-04-16T21:46:50.425Z,62747.53
2024-04-16T21:49:36.664Z,62747.53
2024-04-16T21:52:22.948Z,62747.53
2024-04-16T21:55:08.951Z,62747.53
2024-04-16T21:57:55.014Z,62747.53
2024-04-16T22:00:40.891Z,62747.53
2024-04-16T22:03:26.823Z,62747.53
2024-04-16T22:06:12.612Z,62747.53
2024-04-16T22:08:58.742Z,62747.53
2024-04-16T22:11:44.969Z,62747.53
2024-04-16T22:14:32.864Z,62747.53
2024-04-16T22:17:18.763Z,62747.53
2024-04-16T22:20:05.138Z,62747.53
2024-04-16T22:22:51.133Z,62747.53
2024-04-16T22:25:37.348Z,62747.53
2024-04-16T22:28:23.528Z,62747.53
2024-04-16T22:31:09.420Z,62747.53
2024-04-16T22:33:55.299Z,62747.53
2024-04-16T22:36:41.229Z,62747.53
2024-04-16T22:39:27.061Z,62747.53
2024-04-16T22:42:13.113Z,62747.53
2024-04-16T22:44:58.834Z,62747.53
2024-04-16T22:47:45.096Z,62747.53
2024-04-16T22:50:33.667Z,62747.53
2024-04-16T22:53:20.768Z,62747.53
2024-04-16T22:56:07.036Z,62747.53
2024-04-16T22:58:53.230Z,62747.53
2024-04-16T23:01:39.256Z,62747.53
2024-04-16T23:04:25.211Z,62747.53
2024-04-16T23:07:11.135Z,62747.53
2024-04-16T23:09:56.813Z,62747.53
2024-04-16T23:12:42.749Z,62747.53
2024-04-16T23:15:28.845Z,62747.53
2024-04-16T23:18:15.032Z,62747.53
2024-04-16T23:21:01.216Z,62747.53
2024-04-16T23:23:46.923Z,62747.53
2024-04-16T23:26:37.743Z,62747.53
2024-04-16T23:29:23.816Z,62747.53
2024-04-16T23:32:09.803Z,62747.53
2024-04-16T23:34:55.929Z,62747.53
2024-04-16T23:37:42.066Z,62747.53
2024-04-16T23:40:28.263Z,62747.53
2024-04-16T23:43:14.879Z,62747.53
2024-04-16T23:46:05.176Z,62747.53
2024-04-16T23:48:51.101Z,62747.53
2024-04-16T23:51:37.134Z,62747.53
2024-04-16T23:54:23.574Z,62747.53
2024-04-16T23:57:09.609Z,62747.53
2024-04-16T23:59:55.543Z,62747.53
